createdAt,value
2023-02-01T00:00:27.269Z,2.48
2023-02-01T00:03:45.554Z,2.47
2023-02-01T00:10:19.859Z,2.54
2023-02-01T00:13:39.748Z,2.51
2023-02-01T00:16:53.612Z,2.54
2023-02-01T00:20:09.922Z,2.54
2023-02-01T00:26:46.442Z,2.54
2023-02-01T00:30:04.240Z,2.53
2023-02-01T00:33:21.945Z,2.46
2023-02-01T00:36:38.204Z,2.51
2023-02-01T00:39:59.459Z,2.51
2023-02-01T00:43:15.685Z,2.53
2023-02-01T00:46:32.295Z,2.53
2023-02-01T00:49:50.138Z,2.59
2023-02-01T00:53:06.573Z,2.56
2023-02-01T00:56:23.372Z,2.53
2023-02-01T00:59:40.875Z,2.57
2023-02-01T01:02:57.903Z,2.53
2023-02-01T01:09:29.607Z,2.49
2023-02-01T01:12:45.876Z,2.45
2023-02-01T01:16:04.303Z,2.46
2023-02-01T01:19:20.531Z,2.49
2023-02-01T01:25:52.712Z,2.58
2023-02-01T01:29:09.536Z,2.63
2023-02-01T01:32:25.894Z,2.66
2023-02-01T01:35:42.557Z,2.72
2023-02-01T01:38:59.081Z,2.73
2023-02-01T01:42:18.427Z,2.72
2023-02-01T01:45:39.097Z,2.71
2023-02-01T01:48:57.974Z,2.56
2023-02-01T01:52:14.629Z,2.55
2023-02-01T01:55:33.333Z,2.53
2023-02-01T01:58:50.414Z,2.38
2023-02-01T02:02:06.744Z,2.27
2023-02-01T02:05:26.589Z,2.22
2023-02-01T02:08:42.850Z,2.23
2023-02-01T02:11:59.194Z,2.25
2023-02-01T02:15:18.352Z,2.28
2023-02-01T02:18:39.845Z,2.21
2023-02-01T02:22:11.679Z,2.22
2023-02-01T02:26:02.243Z,2.30
2023-02-01T02:30:03.677Z,2.29
2023-02-01T02:33:55.775Z,2.31
2023-02-01T02:37:18.772Z,2.29
2023-02-01T02:40:40.048Z,2.22
2023-02-01T02:44:14.361Z,2.25
2023-02-01T02:47:36.390Z,2.26
2023-02-01T02:51:10.773Z,2.23
2023-02-01T02:54:45.310Z,2.12
2023-02-01T02:58:18.211Z,2.20
2023-02-01T03:01:48.706Z,2.21
2023-02-01T03:05:05.274Z,2.23
2023-02-01T03:08:26.527Z,2.20
2023-02-01T03:12:02.000Z,2.23
2023-02-01T03:15:21.766Z,2.14
2023-02-01T03:18:45.639Z,2.21
2023-02-01T03:22:05.911Z,2.15
2023-02-01T03:25:30.235Z,2.10
2023-02-01T03:28:52.476Z,2.14
2023-02-01T03:32:10.743Z,2.12
2023-02-01T03:35:30.485Z,2.04
2023-02-01T03:38:52.169Z,2.15
2023-02-01T03:42:12.575Z,2.15
2023-02-01T03:45:33.215Z,2.15
2023-02-01T03:48:50.528Z,2.16
2023-02-01T03:55:26.418Z,1.98
2023-02-01T03:58:43.496Z,2.01
2023-02-01T04:01:59.798Z,2.01
2023-02-01T04:05:18.549Z,2.05
2023-02-01T04:08:51.371Z,2.00
2023-02-01T04:12:07.441Z,2.03
2023-02-01T04:15:23.889Z,2.03
2023-02-01T04:18:39.877Z,2.04
2023-02-01T04:21:56.115Z,1.98
2023-02-01T04:25:14.310Z,1.97
2023-02-01T04:28:30.580Z,1.94
2023-02-01T04:31:48.142Z,1.92
2023-02-01T04:35:04.535Z,1.96
2023-02-01T04:38:20.691Z,1.94
2023-02-01T04:41:36.785Z,1.95
2023-02-01T04:44:52.819Z,1.93
2023-02-01T04:48:11.021Z,1.80
2023-02-01T04:51:27.426Z,1.81
2023-02-01T04:54:43.860Z,1.77
2023-02-01T04:58:00.051Z,1.78
2023-02-01T05:01:17.022Z,1.77
2023-02-01T05:04:33.509Z,1.77
2023-02-01T05:11:05.205Z,1.84
2023-02-01T05:14:21.821Z,1.88
2023-02-01T05:17:38.075Z,1.89
2023-02-01T05:20:54.120Z,1.90
2023-02-01T05:24:18.591Z,1.85
2023-02-01T05:27:38.885Z,1.85
2023-02-01T05:30:55.323Z,1.78
2023-02-01T05:34:13.089Z,1.81
2023-02-01T05:37:29.487Z,1.84
2023-02-01T05:40:49.908Z,1.80
2023-02-01T05:44:06.855Z,1.76
2023-02-01T05:47:25.403Z,1.81
2023-02-01T05:50:41.312Z,1.81
2023-02-01T05:53:59.669Z,1.83
2023-02-01T05:57:16.071Z,1.80
2023-02-01T06:00:35.579Z,1.80
2023-02-01T06:03:51.639Z,1.84
2023-02-01T06:10:24.960Z,1.92
2023-02-01T06:13:43.865Z,1.92
2023-02-01T06:17:00.250Z,1.96
2023-02-01T06:20:23.062Z,1.97
2023-02-01T06:26:57.226Z,2.03
2023-02-01T06:30:16.160Z,2.04
2023-02-01T06:33:32.700Z,2.13
2023-02-01T06:36:48.880Z,2.15
2023-02-01T06:40:05.377Z,2.21
2023-02-01T06:43:21.582Z,2.25
2023-02-01T06:46:37.879Z,2.32
2023-02-01T06:49:55.125Z,2.42
2023-02-01T06:56:27.276Z,2.50
2023-02-01T06:59:43.608Z,2.53
2023-02-01T07:03:00.323Z,2.62
2023-02-01T07:06:17.988Z,2.62
2023-02-01T07:09:34.533Z,2.66
2023-02-01T07:12:50.862Z,2.67
2023-02-01T07:16:09.496Z,2.74
2023-02-01T07:19:25.900Z,2.78
2023-02-01T07:22:42.186Z,2.83
2023-02-01T07:26:03.563Z,2.83
2023-02-01T07:29:19.748Z,2.81
2023-02-01T07:32:36.311Z,2.86
2023-02-01T07:35:55.152Z,2.88
2023-02-01T07:39:13.869Z,2.90
2023-02-01T07:42:30.072Z,2.94
2023-02-01T07:45:47.398Z,2.97
2023-02-01T07:49:04.207Z,2.99
2023-02-01T07:57:33.131Z,3.05
2023-02-01T08:01:03.196Z,3.07
2023-02-01T08:04:21.631Z,3.15
2023-02-01T08:11:11.983Z,3.22
2023-02-01T08:14:29.338Z,3.22
2023-02-01T08:17:47.839Z,3.30
2023-02-01T08:21:05.462Z,3.33
2023-02-01T08:24:25.407Z,3.30
2023-02-01T08:27:44.989Z,3.36
2023-02-01T08:31:02.681Z,3.37
2023-02-01T08:34:20.835Z,3.43
2023-02-01T08:37:37.140Z,3.45
2023-02-01T08:40:53.757Z,3.48
2023-02-01T08:44:10.534Z,3.47
2023-02-01T08:47:28.262Z,3.52
2023-02-01T08:50:44.677Z,3.54
2023-02-01T08:54:02.764Z,3.61
2023-02-01T08:57:19.692Z,3.66
2023-02-01T09:00:36.638Z,3.68
2023-02-01T09:03:53.151Z,3.70
2023-02-01T09:07:09.603Z,3.75
2023-02-01T09:10:35.102Z,3.75
2023-02-01T09:13:46.868Z,3.80
2023-02-01T09:17:03.708Z,3.84
2023-02-01T09:20:24.375Z,3.87
2023-02-01T09:26:56.462Z,3.87
2023-02-01T09:30:14.864Z,3.96
2023-02-01T09:33:31.365Z,4.07
2023-02-01T09:36:48.836Z,4.14
2023-02-01T09:43:40.662Z,4.38
2023-02-01T09:46:58.038Z,4.40
2023-02-01T09:50:24.657Z,4.42
2023-02-01T09:53:45.545Z,4.53
2023-02-01T09:57:05.901Z,4.57
2023-02-01T10:00:32.788Z,4.54
2023-02-01T10:03:49.831Z,4.57
2023-02-01T10:07:20.381Z,4.53
2023-02-01T10:10:38.308Z,4.48
2023-02-01T10:14:06.601Z,4.44
2023-02-01T10:17:32.655Z,4.44
2023-02-01T10:20:59.627Z,4.45
2023-02-01T10:27:35.585Z,4.38
2023-02-01T10:30:55.007Z,4.41
2023-02-01T10:34:17.924Z,4.34
2023-02-01T10:42:05.204Z,4.23
2023-02-01T10:45:28.542Z,4.19
2023-02-01T10:48:49.950Z,4.04
2023-02-01T10:52:12.584Z,4.07
2023-02-01T10:55:43.603Z,4.05
2023-02-01T10:59:02.362Z,4.10
2023-02-01T11:02:32.865Z,4.05
2023-02-01T11:05:57.122Z,4.10
2023-02-01T11:09:26.189Z,4.10
2023-02-01T11:12:45.061Z,4.20
2023-02-01T11:16:06.535Z,4.21
2023-02-01T11:19:26.301Z,4.19
2023-02-01T11:22:42.612Z,4.12
2023-02-01T11:26:05.964Z,4.07
2023-02-01T11:29:28.698Z,4.14
2023-02-01T11:32:47.115Z,4.11
2023-02-01T11:36:04.815Z,4.11
2023-02-01T11:42:38.333Z,4.13
2023-02-01T11:46:05.425Z,4.10
2023-02-01T11:49:34.091Z,4.12
2023-02-01T11:58:37.077Z,4.17
2023-02-01T12:02:18.640Z,4.06
2023-02-01T12:05:45.968Z,3.93
2023-02-01T12:12:26.513Z,3.86
2023-02-01T12:16:00.258Z,3.85
2023-02-01T12:19:49.221Z,3.89
2023-02-01T12:23:54.548Z,3.96
2023-02-01T12:27:24.248Z,4.00
2023-02-01T12:31:14.797Z,3.99
2023-02-01T12:35:14.744Z,4.06
2023-02-01T12:38:47.418Z,4.20
2023-02-01T12:42:15.149Z,4.23
2023-02-01T12:45:38.250Z,4.21
2023-02-01T12:49:02.018Z,4.19
2023-02-01T12:52:23.763Z,4.24
2023-02-01T12:55:48.923Z,4.26
2023-02-01T12:59:11.966Z,4.18
2023-02-01T13:02:36.674Z,4.20
2023-02-01T13:06:02.515Z,4.14
2023-02-01T13:12:40.279Z,4.10
2023-02-01T13:16:02.908Z,4.13
2023-02-01T13:19:26.198Z,4.16
2023-02-01T13:22:47.778Z,4.23
2023-02-01T13:26:05.173Z,4.28
2023-02-01T13:29:22.702Z,4.31
2023-02-01T13:33:54.642Z,4.21
2023-02-01T13:36:40.168Z,4.27
2023-02-01T13:40:10.071Z,4.29
2023-02-01T13:43:30.613Z,4.27
2023-02-01T13:46:53.521Z,4.24
2023-02-01T13:50:17.362Z,4.16
2023-02-01T13:53:39.565Z,4.10
2023-02-01T13:56:56.009Z,4.16
2023-02-01T14:00:37.526Z,4.14
2023-02-01T14:03:59.107Z,4.18
2023-02-01T14:07:27.806Z,4.20
2023-02-01T14:11:02.001Z,4.19
2023-02-01T14:14:51.646Z,4.24
2023-02-01T14:18:07.933Z,4.26
2023-02-01T14:21:31.755Z,4.25
2023-02-01T14:24:50.927Z,4.20
2023-02-01T14:28:08.264Z,4.21
2023-02-01T14:31:51.783Z,4.24
2023-02-01T14:35:15.243Z,4.22
2023-02-01T14:38:34.013Z,4.22
2023-02-01T14:45:21.343Z,4.16
2023-02-01T14:48:59.611Z,4.15
2023-02-01T14:52:23.360Z,4.05
2023-02-01T14:59:02.846Z,3.98
2023-02-01T15:02:33.647Z,3.94
2023-02-01T15:05:50.851Z,3.91
2023-02-01T15:12:33.688Z,3.84
2023-02-01T15:15:49.991Z,3.66
2023-02-01T15:19:23.184Z,3.61
2023-02-01T15:22:40.608Z,3.58
2023-02-01T15:25:57.985Z,3.52
2023-02-01T15:29:22.403Z,3.44
2023-02-01T15:32:47.465Z,3.40
2023-02-01T15:36:15.509Z,3.25
2023-02-01T15:39:36.625Z,3.20
2023-02-01T15:43:00.176Z,3.22
2023-02-01T15:46:25.563Z,3.20
2023-02-01T15:49:46.073Z,3.11
2023-02-01T15:53:04.113Z,3.11
2023-02-01T15:56:22.407Z,3.08
2023-02-01T15:59:46.410Z,3.06
2023-02-01T16:03:07.963Z,2.97
2023-02-01T16:06:41.259Z,2.89
2023-02-01T16:13:14.014Z,2.89
2023-02-01T16:16:30.343Z,2.79
2023-02-01T16:19:47.071Z,2.89
2023-02-01T16:23:05.885Z,2.82
2023-02-01T16:26:22.742Z,2.79
2023-02-01T16:29:43.026Z,2.85
2023-02-01T16:32:59.369Z,2.74
2023-02-01T16:36:18.691Z,2.79
2023-02-01T16:39:38.225Z,2.87
2023-02-01T16:42:58.672Z,2.86
2023-02-01T16:46:22.376Z,2.73
2023-02-01T16:49:39.909Z,2.83
2023-02-01T16:52:56.626Z,2.81
2023-02-01T16:56:23.596Z,2.78
2023-02-01T16:59:41.354Z,2.78
2023-02-01T17:02:58.006Z,2.82
2023-02-01T17:06:16.848Z,2.86
2023-02-01T17:09:34.935Z,2.88
2023-02-01T17:12:52.476Z,2.88
2023-02-01T17:16:12.529Z,2.90
2023-02-01T17:19:31.335Z,2.90
2023-02-01T17:22:47.623Z,2.93
2023-02-01T17:29:20.827Z,2.82
2023-02-01T17:32:37.436Z,2.87
2023-02-01T17:35:54.377Z,2.88
2023-02-01T17:39:11.778Z,2.84
2023-02-01T17:42:30.169Z,2.78
2023-02-01T17:45:53.499Z,2.86
2023-02-01T17:49:10.425Z,2.93
2023-02-01T17:52:29.974Z,2.91
2023-02-01T17:59:02.587Z,2.95
2023-02-01T18:02:29.463Z,2.96
2023-02-01T18:05:51.896Z,3.00
2023-02-01T18:09:09.942Z,3.03
2023-02-01T18:15:42.959Z,3.04
2023-02-01T18:19:02.193Z,2.99
2023-02-01T18:22:24.960Z,2.97
2023-02-01T18:25:42.114Z,2.97
2023-02-01T18:28:58.837Z,2.99
2023-02-01T18:32:17.325Z,3.00
2023-02-01T18:35:37.368Z,3.00
2023-02-01T18:38:55.331Z,2.94
2023-02-01T18:42:12.819Z,2.89
2023-02-01T18:45:41.447Z,2.89
2023-02-01T18:48:58.496Z,2.85
2023-02-01T18:52:15.079Z,2.83
2023-02-01T19:02:04.929Z,2.81
2023-02-01T19:05:23.017Z,2.71
2023-02-01T19:08:40.262Z,2.66
2023-02-01T19:15:18.294Z,2.49
2023-02-01T19:18:34.900Z,2.52
2023-02-01T19:21:51.610Z,2.51
2023-02-01T19:28:24.194Z,2.53
2023-02-01T19:31:41.203Z,2.61
2023-02-01T19:34:57.844Z,2.57
2023-02-01T19:38:16.303Z,2.51
2023-02-01T19:44:47.967Z,2.53
2023-02-01T19:48:07.144Z,2.58
2023-02-01T19:51:21.462Z,2.61
2023-02-01T19:54:38.358Z,2.63
2023-02-01T19:57:55.007Z,2.65
2023-02-01T20:01:13.061Z,2.69
2023-02-01T20:04:29.963Z,2.60
2023-02-01T20:07:46.773Z,2.66
2023-02-01T20:11:04.457Z,2.62
2023-02-01T20:14:22.484Z,2.57
2023-02-01T20:17:38.819Z,2.56
2023-02-01T20:20:56.790Z,2.50
2023-02-01T20:24:18.473Z,2.50
2023-02-01T20:27:36.704Z,2.50
2023-02-01T20:30:55.240Z,2.55
2023-02-01T20:34:12.410Z,2.63
2023-02-01T20:37:28.984Z,2.69
2023-02-01T20:40:48.746Z,2.73
2023-02-01T20:44:06.307Z,2.72
2023-02-01T20:47:22.518Z,2.55
2023-02-01T20:50:41.802Z,2.54
2023-02-01T20:53:59.122Z,2.49
2023-02-01T20:57:18.218Z,2.49
2023-02-01T21:00:34.975Z,2.57
2023-02-01T21:03:51.581Z,2.64
2023-02-01T21:07:08.577Z,2.66
2023-02-01T21:10:25.059Z,2.69
2023-02-01T21:13:47.845Z,2.77
2023-02-01T21:17:04.287Z,2.81
2023-02-01T21:20:23.345Z,2.86
2023-02-01T21:23:41.677Z,2.94
2023-02-01T21:30:16.817Z,3.00
2023-02-01T21:33:32.870Z,3.05
2023-02-01T21:36:49.258Z,3.05
2023-02-01T21:40:07.569Z,3.10
2023-02-01T21:43:24.897Z,3.11
2023-02-01T21:46:41.999Z,3.09
2023-02-01T21:49:58.718Z,3.11
2023-02-01T21:53:15.893Z,3.10
2023-02-01T21:59:50.008Z,3.18
2023-02-01T22:03:06.338Z,3.17
2023-02-01T22:06:32.526Z,3.16
2023-02-01T22:09:49.788Z,3.05
2023-02-01T22:13:07.674Z,3.03
2023-02-01T22:16:24.321Z,3.00
2023-02-01T22:19:40.873Z,2.95
2023-02-01T22:22:59.987Z,2.88
2023-02-01T22:29:32.010Z,2.78
2023-02-01T22:32:47.870Z,2.81
2023-02-01T22:36:04.112Z,2.74
2023-02-01T22:39:20.554Z,2.75
2023-02-01T22:42:36.795Z,2.74
2023-02-01T22:45:52.745Z,2.63
2023-02-01T22:49:10.146Z,2.58
2023-02-01T22:52:26.201Z,2.61
2023-02-01T23:00:35.257Z,2.42
2023-02-01T23:03:51.981Z,2.43
2023-02-01T23:07:08.399Z,2.39
2023-02-01T23:10:25.876Z,2.39
2023-02-01T23:16:58.912Z,2.47
2023-02-01T23:20:21.634Z,2.54
2023-02-01T23:23:37.798Z,2.59
2023-02-01T23:26:53.898Z,2.65
2023-02-01T23:30:10.840Z,2.71
2023-02-01T23:33:29.835Z,2.72
2023-02-01T23:36:46.033Z,2.79
2023-02-01T23:40:02.284Z,2.86
2023-02-01T23:43:32.674Z,2.91
2023-02-01T23:46:52.330Z,2.94
2023-02-01T23:50:08.502Z,2.94
2023-02-01T23:53:24.637Z,2.98
2023-02-01T23:56:43.417Z,3.01
